createdAt,value
2018-12-10T00:01:46.065Z,80.20
2018-12-10T00:04:18.374Z,79.61
2018-12-10T00:06:50.771Z,79.45
2018-12-10T00:09:21.377Z,79.00
2018-12-10T00:11:52.185Z,79.17
2018-12-10T00:14:23.121Z,79.72
2018-12-10T00:16:54.414Z,78.95
2018-12-10T00:19:24.973Z,78.91
2018-12-10T00:21:55.550Z,79.12
2018-12-10T00:24:26.111Z,78.36
2018-12-10T00:26:56.701Z,78.82
2018-12-10T00:29:27.780Z,78.90
2018-12-10T00:31:58.394Z,79.23
2018-12-10T00:34:29.953Z,78.74
2018-12-10T00:37:00.884Z,78.38
2018-12-10T00:39:31.529Z,80.11
2018-12-10T00:42:02.358Z,80.48
2018-12-10T00:44:32.929Z,80.14
2018-12-10T00:47:04.078Z,80.87
2018-12-10T00:49:34.649Z,80.56
2018-12-10T00:52:05.511Z,80.69
2018-12-10T00:54:36.061Z,81.29
2018-12-10T00:57:07.269Z,81.38
2018-12-10T00:59:37.877Z,81.25
2018-12-10T01:02:08.974Z,81.71
2018-12-10T01:04:39.522Z,81.96
2018-12-10T01:07:10.108Z,81.38
2018-12-10T01:09:40.653Z,82.22
2018-12-10T01:12:12.185Z,81.70
2018-12-10T01:17:12.275Z,82.91
2018-12-10T01:19:42.954Z,83.37
2018-12-10T01:22:13.813Z,83.17
2018-12-10T01:24:44.488Z,83.19
2018-12-10T01:27:15.338Z,82.27
2018-12-10T01:29:45.992Z,83.50
2018-12-10T01:32:16.774Z,83.54
2018-12-10T01:34:47.806Z,83.80
2018-12-10T01:37:18.473Z,84.28
2018-12-10T01:39:49.114Z,84.92
2018-12-10T01:42:19.673Z,84.62
2018-12-10T01:44:50.294Z,84.54
2018-12-10T01:47:20.858Z,83.90
2018-12-10T01:49:51.593Z,83.65
2018-12-10T01:52:22.674Z,84.08
2018-12-10T01:54:53.265Z,84.50
2018-12-10T01:57:24.021Z,85.09
2018-12-10T01:59:54.646Z,84.68
2018-12-10T02:02:25.291Z,85.46
2018-12-10T02:04:56.141Z,85.59
2018-12-10T02:07:28.034Z,84.87
2018-12-10T02:09:58.917Z,85.29
2018-12-10T02:12:30.229Z,85.69
2018-12-10T02:15:01.227Z,85.38
2018-12-10T02:17:32.765Z,85.43
2018-12-10T02:20:03.361Z,85.46
2018-12-10T02:22:33.913Z,85.86
2018-12-10T02:25:04.961Z,84.94
2018-12-10T02:27:35.582Z,85.33
2018-12-10T02:30:06.632Z,85.16
2018-12-10T02:32:37.188Z,84.86
2018-12-10T02:35:07.778Z,85.39
2018-12-10T02:37:38.658Z,85.86
2018-12-10T02:40:10.111Z,85.37
2018-12-10T02:42:41.121Z,85.88
2018-12-10T02:45:12.411Z,85.34
2018-12-10T02:47:42.981Z,85.90
2018-12-10T02:50:14.373Z,85.94
2018-12-10T02:52:45.205Z,85.80
2018-12-10T02:55:15.794Z,86.01
2018-12-10T02:57:46.549Z,85.08
2018-12-10T03:00:17.158Z,84.19
2018-12-10T03:02:47.807Z,84.24
2018-12-10T03:05:18.361Z,85.03
2018-12-10T03:07:48.978Z,84.94
2018-12-10T03:10:19.539Z,84.60
2018-12-10T03:12:50.135Z,84.90
2018-12-10T03:15:20.738Z,85.34
2018-12-10T03:17:51.590Z,84.18
2018-12-10T03:20:22.424Z,84.71
2018-12-10T03:22:52.998Z,85.10
2018-12-10T03:25:23.827Z,84.52
2018-12-10T03:27:54.418Z,84.81
2018-12-10T03:30:25.058Z,84.71
2018-12-10T03:32:56.135Z,84.76
2018-12-10T03:35:26.805Z,84.38
2018-12-10T03:37:57.650Z,83.94
2018-12-10T03:40:29.024Z,85.16
2018-12-10T03:42:59.881Z,84.38
2018-12-10T03:45:30.741Z,84.96
2018-12-10T03:48:01.297Z,84.31
2018-12-10T03:50:32.155Z,84.53
2018-12-10T03:53:02.792Z,83.98
2018-12-10T03:55:33.654Z,84.85
2018-12-10T03:58:04.702Z,83.35
2018-12-10T04:00:35.598Z,83.59
2018-12-10T04:03:07.553Z,83.65
2018-12-10T04:05:38.369Z,83.55
2018-12-10T04:08:09.183Z,84.09
2018-12-10T04:10:40.319Z,83.61
2018-12-10T04:13:11.828Z,83.83
2018-12-10T04:15:43.125Z,84.07
2018-12-10T04:18:14.202Z,83.93
2018-12-10T04:20:44.846Z,82.91
2018-12-10T04:23:15.698Z,83.21
2018-12-10T04:25:48.237Z,83.16
2018-12-10T04:28:19.264Z,83.97
2018-12-10T04:30:50.443Z,84.35
2018-12-10T04:33:21.281Z,84.11
2018-12-10T04:35:52.123Z,83.32
2018-12-10T04:38:22.726Z,83.71
2018-12-10T04:40:54.046Z,84.46
2018-12-10T04:43:24.708Z,84.07
2018-12-10T04:45:55.554Z,84.29
2018-12-10T04:48:26.161Z,83.55
2018-12-10T04:50:56.772Z,82.92
2018-12-10T04:53:27.702Z,82.42
2018-12-10T04:55:58.811Z,83.93
2018-12-10T04:58:29.423Z,83.96
2018-12-10T05:01:00.002Z,82.62
2018-12-10T05:03:30.669Z,83.14
2018-12-10T05:06:01.620Z,82.86
2018-12-10T05:08:32.413Z,82.40
2018-12-10T05:11:03.202Z,81.91
2018-12-10T05:13:33.789Z,81.94
2018-12-10T05:16:04.381Z,82.32
2018-12-10T05:18:34.926Z,81.34
2018-12-10T05:21:05.824Z,82.72
2018-12-10T05:23:36.378Z,81.99
2018-12-10T05:26:06.958Z,82.86
2018-12-10T05:28:37.786Z,82.06
2018-12-10T05:31:09.166Z,82.44
2018-12-10T05:33:40.089Z,81.10
2018-12-10T05:36:10.930Z,81.64
2018-12-10T05:38:41.961Z,81.15
2018-12-10T05:41:12.546Z,81.34
2018-12-10T05:43:43.150Z,81.63
2018-12-10T05:46:14.249Z,81.13
2018-12-10T05:48:44.977Z,80.91
2018-12-10T05:51:15.554Z,81.11
2018-12-10T05:53:46.126Z,81.39
2018-12-10T05:56:16.796Z,81.29
2018-12-10T05:58:47.534Z,80.67
2018-12-10T06:01:18.141Z,81.17
2018-12-10T06:03:48.805Z,80.89
2018-12-10T06:06:19.383Z,81.15
2018-12-10T06:08:49.954Z,81.53
2018-12-10T06:11:20.554Z,81.07
2018-12-10T06:13:51.484Z,80.69
2018-12-10T06:16:22.030Z,79.87
2018-12-10T06:18:52.610Z,79.79
2018-12-10T06:21:23.260Z,80.21
2018-12-10T06:23:53.926Z,78.45
2018-12-10T06:26:24.666Z,78.76
2018-12-10T06:28:55.246Z,79.02
2018-12-10T06:31:25.836Z,78.98
2018-12-10T06:33:56.980Z,79.25
2018-12-10T06:36:27.534Z,78.07
2018-12-10T06:38:58.375Z,78.40
2018-12-10T06:41:28.976Z,78.54
2018-12-10T06:43:59.593Z,78.78
2018-12-10T06:46:30.218Z,78.24
2018-12-10T06:49:00.816Z,78.38
2018-12-10T06:51:31.401Z,77.81
2018-12-10T06:56:50.636Z,78.24
2018-12-10T06:59:21.208Z,77.02
2018-12-10T07:01:51.826Z,77.17
2018-12-10T07:04:22.554Z,77.74
2018-12-10T07:06:53.162Z,76.99
2018-12-10T07:09:23.734Z,77.59
2018-12-10T07:11:54.309Z,77.86
2018-12-10T07:14:24.897Z,77.71
2018-12-10T07:16:56.098Z,77.40
2018-12-10T07:19:26.652Z,77.61
2018-12-10T07:21:57.280Z,77.15
2018-12-10T07:24:27.889Z,76.99
2018-12-10T07:26:59.687Z,76.90
2018-12-10T07:29:30.274Z,76.63
2018-12-10T07:32:00.867Z,76.33
2018-12-10T07:34:31.407Z,77.21
2018-12-10T07:37:02.446Z,77.29
2018-12-10T07:39:33.000Z,78.35
2018-12-10T07:42:04.117Z,78.79
2018-12-10T07:44:34.793Z,78.37
2018-12-10T07:47:05.834Z,78.84
2018-12-10T07:49:36.677Z,78.48
2018-12-10T07:52:07.314Z,78.02
2018-12-10T07:54:37.900Z,79.04
2018-12-10T07:57:08.550Z,78.64
2018-12-10T07:59:39.143Z,79.20
2018-12-10T08:02:09.718Z,79.20
2018-12-10T08:04:40.352Z,79.25
2018-12-10T08:07:11.333Z,79.00
2018-12-10T08:09:42.205Z,78.77
2018-12-10T08:12:13.169Z,78.63
2018-12-10T08:14:44.841Z,79.12
2018-12-10T08:17:15.699Z,78.69
2018-12-10T08:19:46.300Z,79.04
2018-12-10T08:22:16.860Z,79.51
2018-12-10T08:24:47.446Z,78.74
2018-12-10T08:27:17.998Z,79.16
2018-12-10T08:29:48.721Z,77.71
2018-12-10T08:32:19.343Z,77.99
2018-12-10T08:34:50.290Z,77.21
2018-12-10T08:37:21.222Z,78.26
2018-12-10T08:39:51.863Z,77.88
2018-12-10T08:42:22.424Z,77.74
2018-12-10T08:44:54.456Z,77.54
2018-12-10T08:47:25.050Z,79.02
2018-12-10T08:49:55.631Z,77.77
2018-12-10T08:52:26.230Z,77.24
2018-12-10T08:54:56.867Z,77.41
2018-12-10T08:57:27.498Z,77.24
2018-12-10T08:59:58.126Z,77.98
2018-12-10T09:02:29.192Z,77.02
2018-12-10T09:04:59.990Z,77.30
2018-12-10T09:07:30.634Z,76.34
2018-12-10T09:10:01.200Z,77.02
2018-12-10T09:12:32.513Z,76.12
2018-12-10T09:15:03.160Z,76.40
2018-12-10T09:17:34.023Z,76.32
2018-12-10T09:20:05.858Z,75.90
2018-12-10T09:22:36.448Z,76.82
2018-12-10T09:25:08.239Z,76.24
2018-12-10T09:27:38.863Z,75.85
2018-12-10T09:30:14.290Z,75.95
2018-12-10T09:32:44.870Z,75.56
2018-12-10T09:35:16.035Z,74.50
2018-12-10T09:37:46.675Z,74.85
2018-12-10T09:40:17.706Z,74.46
2018-12-10T09:42:49.953Z,75.08
2018-12-10T09:45:20.974Z,75.09
2018-12-10T09:47:51.537Z,75.31
2018-12-10T09:50:22.638Z,73.78
2018-12-10T09:52:53.183Z,73.95
2018-12-10T09:55:24.173Z,74.36
2018-12-10T09:57:54.771Z,74.17
2018-12-10T10:00:25.778Z,74.11
2018-12-10T10:02:56.353Z,73.61
2018-12-10T10:05:26.933Z,74.05
2018-12-10T10:07:57.500Z,74.54
2018-12-10T10:10:28.069Z,73.76
2018-12-10T10:12:58.705Z,74.35
2018-12-10T10:15:30.122Z,73.14
2018-12-10T10:18:00.691Z,73.11
2018-12-10T10:20:31.331Z,73.25
2018-12-10T10:23:01.883Z,73.59
2018-12-10T10:25:32.507Z,73.58
2018-12-10T10:28:03.082Z,74.26
2018-12-10T10:30:33.748Z,73.47
2018-12-10T10:33:04.754Z,73.01
2018-12-10T10:35:35.325Z,73.14
2018-12-10T10:38:05.937Z,72.94
2018-12-10T10:40:36.528Z,73.86
2018-12-10T10:43:07.102Z,73.59
2018-12-10T10:45:39.062Z,72.42
2018-12-10T10:48:09.719Z,72.07
2018-12-10T10:50:40.330Z,71.97
2018-12-10T10:53:10.922Z,70.76
2018-12-10T10:55:41.509Z,71.10
2018-12-10T10:58:12.120Z,72.26
2018-12-10T11:00:47.979Z,72.22
2018-12-10T11:03:23.937Z,72.37
2018-12-10T11:05:54.539Z,72.55
2018-12-10T11:08:25.388Z,71.91
2018-12-10T11:10:56.537Z,71.89
2018-12-10T11:13:27.138Z,72.00
2018-12-10T11:15:58.157Z,72.25
2018-12-10T11:18:29.204Z,72.29
2018-12-10T11:20:59.798Z,72.01
2018-12-10T11:23:30.392Z,71.39
2018-12-10T11:26:00.961Z,71.61
2018-12-10T11:28:31.583Z,71.11
2018-12-10T11:31:02.494Z,71.76
2018-12-10T11:33:33.134Z,71.72
2018-12-10T11:36:04.134Z,71.65
2018-12-10T11:38:34.797Z,71.24
2018-12-10T11:41:05.487Z,70.93
2018-12-10T11:43:36.070Z,71.76
2018-12-10T11:46:06.656Z,70.96
2018-12-10T11:48:37.232Z,70.37
2018-12-10T11:51:07.825Z,71.95
2018-12-10T11:53:38.454Z,71.34
2018-12-10T11:56:09.909Z,71.80
2018-12-10T11:58:40.545Z,71.68
2018-12-10T12:01:11.131Z,70.67
2018-12-10T12:03:41.707Z,71.16
2018-12-10T12:06:14.022Z,71.47
2018-12-10T12:08:44.618Z,71.33
2018-12-10T12:11:15.305Z,70.80
2018-12-10T12:13:45.879Z,70.80
2018-12-10T12:16:17.031Z,69.86
2018-12-10T12:18:47.630Z,69.65
2018-12-10T12:21:19.287Z,69.72
2018-12-10T12:23:49.958Z,70.06
2018-12-10T12:26:20.573Z,70.07
2018-12-10T12:28:51.171Z,70.40
2018-12-10T12:31:21.865Z,70.70
2018-12-10T12:33:52.463Z,70.17
2018-12-10T12:36:23.078Z,71.78
2018-12-10T12:38:53.688Z,70.22
2018-12-10T12:41:24.250Z,70.49
2018-12-10T12:43:54.842Z,70.54
2018-12-10T12:46:26.365Z,70.80
2018-12-10T12:48:56.950Z,70.28
2018-12-10T12:51:27.974Z,70.76
2018-12-10T12:53:58.585Z,70.32
2018-12-10T12:56:29.581Z,71.06
2018-12-10T12:59:00.199Z,71.87
2018-12-10T13:01:30.822Z,71.56
2018-12-10T13:04:02.145Z,70.91
2018-12-10T13:06:32.775Z,70.79
2018-12-10T13:09:03.690Z,71.60
2018-12-10T13:11:37.133Z,71.08
2018-12-10T13:14:08.185Z,71.26
2018-12-10T13:16:38.779Z,70.70
2018-12-10T13:19:09.335Z,70.03
2018-12-10T13:21:39.970Z,70.66
2018-12-10T13:24:10.539Z,71.20
2018-12-10T13:26:42.599Z,70.09
2018-12-10T13:29:13.470Z,69.41
2018-12-10T13:31:44.570Z,69.18
2018-12-10T13:34:15.161Z,68.75
2018-12-10T13:36:45.766Z,68.41
2018-12-10T13:39:16.317Z,67.91
2018-12-10T13:41:46.979Z,67.85
2018-12-10T13:44:17.597Z,68.22
2018-12-10T13:46:48.468Z,68.62
2018-12-10T13:49:19.297Z,67.63
2018-12-10T13:51:49.882Z,67.38
2018-12-10T13:54:20.929Z,67.78
2018-12-10T13:56:51.518Z,67.47
2018-12-10T13:59:22.114Z,68.03
2018-12-10T14:01:52.697Z,67.72
2018-12-10T14:07:18.427Z,67.71
2018-12-10T14:09:49.280Z,67.73
2018-12-10T14:12:19.948Z,68.07
2018-12-10T14:14:50.639Z,67.68
2018-12-10T14:17:22.218Z,67.95
2018-12-10T14:19:53.043Z,67.90
2018-12-10T14:22:23.804Z,67.40
2018-12-10T14:24:55.331Z,67.78
2018-12-10T14:27:26.370Z,67.60
2018-12-10T14:29:57.089Z,66.65
2018-12-10T14:32:27.701Z,66.93
2018-12-10T14:34:58.313Z,67.53
2018-12-10T14:37:28.990Z,66.86
2018-12-10T14:39:59.616Z,66.35
2018-12-10T14:42:30.182Z,66.30
2018-12-10T14:45:01.741Z,66.55
2018-12-10T14:47:32.335Z,65.97
2018-12-10T14:50:02.928Z,66.88
2018-12-10T14:52:34.012Z,66.79
2018-12-10T14:55:06.090Z,66.24
2018-12-10T14:57:37.004Z,66.50
2018-12-10T15:00:10.044Z,66.65
2018-12-10T15:02:40.739Z,66.94
2018-12-10T15:05:13.358Z,67.10
2018-12-10T15:07:43.938Z,66.64
2018-12-10T15:10:15.165Z,66.90
2018-12-10T15:12:45.802Z,67.50
2018-12-10T15:15:16.366Z,66.79
2018-12-10T15:17:46.968Z,67.37
2018-12-10T15:20:18.074Z,67.81
2018-12-10T15:22:48.749Z,67.86
2018-12-10T15:25:20.113Z,66.88
2018-12-10T15:27:50.850Z,67.40
2018-12-10T15:30:21.494Z,67.22
2018-12-10T15:32:52.399Z,67.90
2018-12-10T15:35:24.293Z,67.91
2018-12-10T15:37:54.977Z,67.26
2018-12-10T15:40:25.635Z,68.52
2018-12-10T15:42:56.242Z,67.75
2018-12-10T15:45:27.815Z,68.09
2018-12-10T15:47:58.497Z,68.51
2018-12-10T15:50:29.098Z,68.52
2018-12-10T15:52:59.671Z,68.40
2018-12-10T15:55:30.345Z,68.99
2018-12-10T15:58:00.918Z,69.22
2018-12-10T16:00:31.637Z,68.67
2018-12-10T16:03:02.525Z,68.71
2018-12-10T16:05:33.912Z,68.95
2018-12-10T16:08:04.526Z,68.33
2018-12-10T16:10:35.130Z,69.49
2018-12-10T16:13:05.760Z,68.89
2018-12-10T16:15:37.169Z,68.33
2018-12-10T16:18:08.252Z,68.55
2018-12-10T16:20:38.847Z,68.82
2018-12-10T16:23:10.138Z,68.00
2018-12-10T16:25:41.282Z,68.58
2018-12-10T16:28:13.202Z,68.70
2018-12-10T16:30:44.430Z,68.51
2018-12-10T16:33:15.581Z,67.79
2018-12-10T16:35:47.282Z,68.27
2018-12-10T16:38:17.921Z,68.72
2018-12-10T16:40:48.526Z,67.91
2018-12-10T16:43:19.166Z,67.62
2018-12-10T16:45:50.215Z,67.92
2018-12-10T16:48:21.366Z,67.77
2018-12-10T16:50:51.972Z,67.98
2018-12-10T16:53:22.710Z,68.16
2018-12-10T16:55:53.749Z,68.26
2018-12-10T16:58:24.606Z,68.77
2018-12-10T17:00:55.287Z,69.21
2018-12-10T17:03:25.983Z,69.30
2018-12-10T17:05:56.553Z,68.69
2018-12-10T17:08:27.343Z,69.35
2018-12-10T17:10:57.923Z,69.79
2018-12-10T17:13:28.528Z,69.48
2018-12-10T17:15:59.321Z,69.85
2018-12-10T17:18:30.177Z,69.56
2018-12-10T17:21:00.790Z,70.40
2018-12-10T17:23:31.429Z,70.92
2018-12-10T17:26:02.133Z,71.30
2018-12-10T17:28:32.749Z,71.66
2018-12-10T17:31:03.341Z,71.59
2018-12-10T17:33:33.951Z,71.43
2018-12-10T17:36:04.578Z,71.88
2018-12-10T17:38:35.181Z,71.55
2018-12-10T17:41:06.824Z,71.44
2018-12-10T17:43:37.405Z,72.13
2018-12-10T17:46:08.001Z,72.68
2018-12-10T17:48:38.715Z,72.63
2018-12-10T17:51:09.314Z,72.88
2018-12-10T17:53:40.026Z,73.08
2018-12-10T17:56:10.949Z,73.01
2018-12-10T17:58:42.029Z,73.53
2018-12-10T18:01:12.931Z,74.31
2018-12-10T18:03:43.654Z,73.75
2018-12-10T18:06:14.299Z,74.07
2018-12-10T18:08:45.147Z,73.77
2018-12-10T18:11:15.777Z,74.08
2018-12-10T18:13:46.707Z,74.30
2018-12-10T18:16:17.281Z,74.53
2018-12-10T18:18:48.153Z,73.63
2018-12-10T18:21:18.809Z,74.02
2018-12-10T18:23:49.421Z,74.79
2018-12-10T18:26:20.355Z,75.82
2018-12-10T18:28:51.057Z,74.90
2018-12-10T18:31:21.715Z,77.07
2018-12-10T18:33:52.963Z,78.30
2018-12-10T18:36:23.897Z,79.71
2018-12-10T18:38:54.857Z,80.23
2018-12-10T18:41:26.205Z,80.55
2018-12-10T18:43:57.374Z,82.14
2018-12-10T18:46:28.642Z,81.96
2018-12-10T18:48:59.546Z,81.34
2018-12-10T18:51:30.461Z,81.87
2018-12-10T18:54:01.507Z,82.58
2018-12-10T18:56:33.327Z,81.94
2018-12-10T18:59:10.838Z,82.28
2018-12-10T19:01:41.761Z,82.72
2018-12-10T19:04:12.728Z,82.88
2018-12-10T19:06:43.663Z,82.17
2018-12-10T19:09:15.281Z,82.58
2018-12-10T19:11:46.148Z,82.21
2018-12-10T19:14:17.007Z,82.92
2018-12-10T19:16:47.950Z,82.33
2018-12-10T19:19:18.885Z,81.22
2018-12-10T19:21:49.899Z,82.12
2018-12-10T19:24:20.876Z,81.47
2018-12-10T19:26:51.890Z,81.80
2018-12-10T19:29:22.808Z,81.93
2018-12-10T19:31:53.773Z,81.82
2018-12-10T19:34:24.698Z,81.04
2018-12-10T19:36:55.772Z,82.01
2018-12-10T19:39:27.298Z,81.77
2018-12-10T19:41:58.338Z,81.27
2018-12-10T19:44:29.499Z,81.85
2018-12-10T19:47:00.413Z,80.86
2018-12-10T19:49:31.701Z,80.66
2018-12-10T19:52:02.720Z,81.61
2018-12-10T19:54:33.935Z,81.45
2018-12-10T19:57:05.336Z,80.92
2018-12-10T19:59:36.472Z,81.43
2018-12-10T20:02:08.737Z,80.84
2018-12-10T20:04:39.747Z,80.62
2018-12-10T20:07:10.889Z,81.17
2018-12-10T20:09:41.812Z,80.43
2018-12-10T20:12:13.182Z,80.72
2018-12-10T20:14:44.214Z,80.12
2018-12-10T20:17:15.220Z,80.85
2018-12-10T20:19:46.485Z,80.52
2018-12-10T20:22:17.772Z,80.19
2018-12-10T20:24:48.670Z,80.11
2018-12-10T20:27:19.663Z,79.49
2018-12-10T20:29:51.587Z,79.59
2018-12-10T20:32:22.743Z,80.61
2018-12-10T20:34:53.995Z,80.19
2018-12-10T20:37:25.122Z,80.46
2018-12-10T20:39:56.333Z,80.17
2018-12-10T20:42:27.724Z,79.56
2018-12-10T20:44:58.637Z,80.46
2018-12-10T20:47:30.015Z,80.61
2018-12-10T20:50:00.926Z,80.51
2018-12-10T20:52:32.109Z,80.65
2018-12-10T20:55:04.068Z,79.97
2018-12-10T20:57:41.364Z,80.04
2018-12-10T21:00:10.019Z,79.95
2018-12-10T21:02:40.948Z,80.09
2018-12-10T21:05:11.880Z,80.48
2018-12-10T21:07:42.829Z,80.05
2018-12-10T21:10:13.749Z,79.66
2018-12-10T21:12:44.758Z,80.34
2018-12-10T21:15:15.702Z,80.45
2018-12-10T21:17:46.888Z,80.52
2018-12-10T21:20:17.507Z,80.85
2018-12-10T21:22:48.963Z,80.20
2018-12-10T21:25:19.947Z,79.67
2018-12-10T21:27:51.334Z,80.50
2018-12-10T21:30:22.290Z,79.47
2018-12-10T21:32:53.738Z,79.84
2018-12-10T21:35:24.597Z,79.94
2018-12-10T21:37:55.534Z,79.07
2018-12-10T21:40:26.483Z,78.46
2018-12-10T21:42:57.598Z,79.88
2018-12-10T21:45:28.517Z,79.69
2018-12-10T21:47:59.487Z,79.36
2018-12-10T21:50:30.346Z,78.73
2018-12-10T21:53:01.062Z,78.26
2018-12-10T21:55:31.975Z,78.27
2018-12-10T21:58:02.568Z,78.54
2018-12-10T22:00:33.702Z,78.26
2018-12-10T22:03:05.481Z,79.03
2018-12-10T22:05:36.374Z,78.61
2018-12-10T22:08:07.490Z,78.76
2018-12-10T22:10:38.801Z,78.98
2018-12-10T22:13:10.289Z,78.87
2018-12-10T22:15:41.209Z,78.30
2018-12-10T22:18:12.265Z,77.73
2018-12-10T22:20:43.170Z,77.59
2018-12-10T22:23:14.369Z,76.81
2018-12-10T22:25:45.268Z,76.96
2018-12-10T22:28:16.094Z,76.21
2018-12-10T22:30:47.047Z,77.17
2018-12-10T22:33:17.987Z,76.88
2018-12-10T22:35:48.922Z,77.34
2018-12-10T22:38:20.578Z,76.52
2018-12-10T22:40:51.428Z,76.19
2018-12-10T22:43:22.554Z,76.12
2018-12-10T22:45:53.486Z,77.07
2018-12-10T22:48:24.416Z,77.52
2018-12-10T22:50:55.027Z,76.46
2018-12-10T22:53:25.989Z,76.31
2018-12-10T22:55:56.593Z,76.87
2018-12-10T22:58:27.254Z,77.42
2018-12-10T23:00:57.998Z,77.37
2018-12-10T23:03:28.608Z,76.28
2018-12-10T23:05:59.911Z,76.44
2018-12-10T23:08:30.477Z,76.17
2018-12-10T23:11:01.526Z,76.10
2018-12-10T23:13:33.895Z,76.34
2018-12-10T23:16:05.023Z,76.57
2018-12-10T23:18:36.274Z,75.71
2018-12-10T23:21:08.594Z,75.50
2018-12-10T23:23:39.717Z,75.92
2018-12-10T23:26:10.713Z,76.62
2018-12-10T23:28:41.357Z,75.17
2018-12-10T23:31:12.118Z,75.62
2018-12-10T23:33:42.951Z,75.93
2018-12-10T23:36:14.158Z,75.80
2018-12-10T23:38:44.734Z,75.58
2018-12-10T23:41:17.214Z,76.70
2018-12-10T23:43:49.724Z,75.92
2018-12-10T23:46:20.602Z,75.34
2018-12-10T23:48:52.021Z,75.67
2018-12-10T23:51:23.704Z,75.20
2018-12-10T23:53:54.627Z,76.24
2018-12-10T23:56:25.278Z,75.56
2018-12-10T23:58:56.305Z,75.62
